Los Molinos, California
Current Conditions -  °F | °C
As of 9:54 AM on Saturday 20 Dec 2014 (Local Time) from KRBL Reporting Station
Overcast Overcast  
Wind Chill: 53°   Ceiling: 600
Heat Index: 53°   Visibility: 10mi
Dew Point: 50°   Wind: 18mph
Humidity: 89%   Direction: 160°SSE
Pressure: 30.16"   Gusts: NA
Location:  40.02°N, 122.1°W
Report Text: KRBL 201754Z AUTO 16016KT 10SM OVC006 12/10 A3016 RMK AO2 RAE21 SLP213 P0000 60002 T01170100 10117 20111 51010
Loading
Personal Weather Stations






























Interactive Weather Map New forecast layout! Learn more

10-Day Weather Forecast

Advertisements
Track Severe Weather on mobile